Hovedside
METAR-TAF:

METAR-TAF

Lufthavner :

Victoria Harbour, Britisk Columbia, Canada

breddegrad: 48-25N, lengdegrad: 123-20W, høyde over havet: 5 m

Gjeldene værobservasjon

Denne rapporten ble laget for 47 minutter siden, klokken 04:00 UTC
Vind 2 kt fra Nord-nordvest
Temperatur 10°C
Luftfuktighet 87%
Trykk 1016 hPa
Sikt: 24.1 km
Brutte skyer i en høyde av 22000 ft

METAR: CYWH 220400Z 33002KT 15SM BKN220 10/08 A2999 RMK CI5 LAST STFD OBS/NEXT 221300 UTC SLP157

Tid: 21:47 (04:47 UTC)

Varsel

Denne rapporten ble laget for 5 timer og 9 minutter siden, klokken 23:38 UTC
Varsel gyldig fra 22. klokken 00 UTC til 22. klokken 04 UTC
Vind 6 kt fra Sørvest
Sikt: 10 km
Brutte skyer i en høyde av 25000 ft

TAF: CYWH 212338Z 2200/2204 23006KT P6SM BKN250 RMK NXT FCST WILL BE ISSUED AT 221415Z

Værobservasjoner og værvarsel for over 4000 flyplasser (METAR- og TAF-rapporter).

Tilgjengelige stasjoner er representert av de røde og gule prikkene på kartet.

Hold musepekeren over prikken for å se navnet på stasjonen.

Klikk så for å se værobservasjoner og -varsler.

For å forandre kartet kan du klikke på den grønne knappen med svart kryss for å zoome inn, på den grønne knappen med strek for å zoome ut, eller på de grønne pilene for å se tilstøtende kart.


METAR-TAF: